createdAt,value
2023-03-29T00:01:52.055Z,7.78
2023-03-29T00:04:19.193Z,6.43
2023-03-29T00:06:46.182Z,6.72
2023-03-29T00:09:13.293Z,8.93
2023-03-29T00:11:40.486Z,8.85
2023-03-29T00:14:07.503Z,8.98
2023-03-29T00:16:34.662Z,8.60
2023-03-29T00:19:03.098Z,9.52
2023-03-29T00:21:30.364Z,8.93
2023-03-29T00:23:57.701Z,8.77
2023-03-29T00:26:24.687Z,8.07
2023-03-29T00:28:51.636Z,10.52
2023-03-29T00:31:18.901Z,9.43
2023-03-29T00:33:46.178Z,9.10
2023-03-29T00:36:14.519Z,10.27
2023-03-29T00:38:42.017Z,9.13
2023-03-29T00:41:10.125Z,7.63
2023-03-29T00:43:58.918Z,12.40
2023-03-29T00:46:27.589Z,11.35
2023-03-29T00:48:58.538Z,10.95
2023-03-29T00:51:30.542Z,10.07
2023-03-29T00:54:01.823Z,9.63
2023-03-29T00:56:31.030Z,16.02
2023-03-29T00:59:01.546Z,12.95
2023-03-29T01:01:32.166Z,11.90
2023-03-29T01:04:04.609Z,14.73
2023-03-29T01:06:36.455Z,11.55
2023-03-29T01:09:06.160Z,9.68
2023-03-29T01:11:37.085Z,14.05
2023-03-29T01:14:06.451Z,12.20
2023-03-29T01:16:36.108Z,13.10
2023-03-29T01:19:05.198Z,12.75
2023-03-29T01:21:36.853Z,10.65
2023-03-29T01:24:20.304Z,12.43
2023-03-29T01:26:55.210Z,10.43
2023-03-29T01:31:58.162Z,9.43
2023-03-29T01:34:30.208Z,9.32
2023-03-29T01:37:03.417Z,10.00
2023-03-29T01:39:30.860Z,12.80
2023-03-29T01:42:08.618Z,10.73
2023-03-29T01:44:47.466Z,9.50
2023-03-29T01:47:22.127Z,10.75
2023-03-29T01:49:58.055Z,15.45
2023-03-29T01:52:29.905Z,9.13
2023-03-29T01:55:02.874Z,11.80
2023-03-29T01:57:32.602Z,10.32
2023-03-29T02:00:03.145Z,14.30
2023-03-29T02:02:31.778Z,12.82
2023-03-29T02:04:59.568Z,10.02
2023-03-29T02:07:30.125Z,9.68
2023-03-29T02:09:59.173Z,12.40
2023-03-29T02:12:26.112Z,11.82
2023-03-29T02:14:53.077Z,14.85
2023-03-29T02:17:23.273Z,10.75
2023-03-29T02:19:56.121Z,11.63
2023-03-29T02:22:27.560Z,16.15
2023-03-29T02:24:57.722Z,15.52
2023-03-29T02:27:25.047Z,13.43
2023-03-29T02:29:52.071Z,14.75
2023-03-29T02:32:26.495Z,12.75
2023-03-29T02:34:57.850Z,11.95
2023-03-29T02:37:27.389Z,13.05
2023-03-29T02:39:54.489Z,11.85
2023-03-29T02:42:23.140Z,14.25
2023-03-29T02:44:52.602Z,11.88
2023-03-29T02:47:26.055Z,18.27
2023-03-29T02:49:53.235Z,12.45
2023-03-29T02:52:25.561Z,14.77
2023-03-29T02:54:54.352Z,14.00
2023-03-29T02:57:22.788Z,14.05
2023-03-29T02:59:49.801Z,16.00
2023-03-29T03:02:16.817Z,15.27
2023-03-29T03:04:45.325Z,15.80
2023-03-29T03:07:12.232Z,12.57
2023-03-29T03:09:39.247Z,14.95
2023-03-29T03:12:06.737Z,16.83
2023-03-29T03:14:33.664Z,18.45
2023-03-29T03:17:03.112Z,14.13
2023-03-29T03:19:31.408Z,18.27
2023-03-29T03:21:59.743Z,14.60
2023-03-29T03:24:26.824Z,13.00
2023-03-29T03:26:53.838Z,15.88
2023-03-29T03:29:20.867Z,14.70
2023-03-29T03:31:47.878Z,14.95
2023-03-29T03:34:14.851Z,16.25
2023-03-29T03:36:41.817Z,14.93
2023-03-29T03:39:10.200Z,17.48
2023-03-29T03:41:37.229Z,15.20
2023-03-29T03:44:04.321Z,14.75
2023-03-29T03:46:31.255Z,14.25
2023-03-29T03:48:58.526Z,17.08
2023-03-29T03:51:25.934Z,12.10
2023-03-29T03:53:52.905Z,17.13
2023-03-29T03:56:21.216Z,13.75
2023-03-29T03:58:48.112Z,17.70
2023-03-29T04:01:15.146Z,12.27
2023-03-29T04:03:42.144Z,13.88
2023-03-29T04:06:09.472Z,12.15
2023-03-29T04:08:36.466Z,16.02
2023-03-29T04:11:03.839Z,16.27
2023-03-29T04:13:32.338Z,17.02
2023-03-29T04:16:01.429Z,15.52
2023-03-29T04:18:28.848Z,13.65
2023-03-29T04:20:55.840Z,16.65
2023-03-29T04:23:22.798Z,14.63
2023-03-29T04:25:49.707Z,15.43
2023-03-29T04:28:16.620Z,17.08
2023-03-29T04:30:46.098Z,16.25
2023-03-29T04:33:13.039Z,18.30
2023-03-29T04:35:40.255Z,17.73
2023-03-29T04:38:07.274Z,19.20
2023-03-29T04:40:34.186Z,17.60
2023-03-29T04:43:01.129Z,14.20
2023-03-29T04:45:28.283Z,15.15
2023-03-29T04:47:58.107Z,19.05
2023-03-29T04:50:25.060Z,17.02
2023-03-29T04:52:52.115Z,15.68
2023-03-29T04:55:19.270Z,17.67
2023-03-29T04:57:46.201Z,17.42
2023-03-29T05:00:14.131Z,16.67
2023-03-29T05:02:41.786Z,16.92
2023-03-29T05:05:10.943Z,15.48
2023-03-29T05:07:38.213Z,15.82
2023-03-29T05:10:06.420Z,19.73
2023-03-29T05:12:33.552Z,46.33
2023-03-29T05:15:00.478Z,21.25
2023-03-29T05:17:27.657Z,37.95
2023-03-29T05:19:54.760Z,23.80
2023-03-29T05:22:23.181Z,20.52
2023-03-29T05:24:50.356Z,31.90
2023-03-29T05:27:17.333Z,18.95
2023-03-29T05:29:44.309Z,16.45
2023-03-29T05:32:11.445Z,17.75
2023-03-29T05:34:38.493Z,14.98
2023-03-29T05:37:05.626Z,15.98
2023-03-29T05:39:36.375Z,22.83
2023-03-29T05:42:04.941Z,16.48
2023-03-29T05:44:31.939Z,22.27
2023-03-29T05:46:58.939Z,13.25
2023-03-29T05:49:25.969Z,17.27
2023-03-29T05:51:53.039Z,14.73
2023-03-29T05:54:20.009Z,15.40
2023-03-29T05:56:48.307Z,13.32
2023-03-29T05:59:15.314Z,11.80
2023-03-29T06:01:42.259Z,12.48
2023-03-29T06:04:09.301Z,12.73
2023-03-29T06:06:36.494Z,13.35
2023-03-29T06:09:03.488Z,16.48
2023-03-29T06:11:30.606Z,13.82
2023-03-29T06:13:59.280Z,16.00
2023-03-29T06:16:26.352Z,11.50
2023-03-29T06:18:53.381Z,11.18
2023-03-29T06:21:20.318Z,11.55
2023-03-29T06:23:47.442Z,12.15
2023-03-29T06:26:14.583Z,13.10
2023-03-29T06:28:41.511Z,15.32
2023-03-29T06:31:10.118Z,12.68
2023-03-29T06:33:37.343Z,23.05
2023-03-29T06:36:04.919Z,19.27
2023-03-29T06:38:31.958Z,25.52
2023-03-29T06:41:03.016Z,13.25
2023-03-29T06:43:30.164Z,11.70
2023-03-29T06:45:57.167Z,11.40
2023-03-29T06:48:25.539Z,10.50
2023-03-29T06:50:52.456Z,16.20
2023-03-29T06:53:19.411Z,13.90
2023-03-29T06:55:46.374Z,12.35
2023-03-29T06:58:13.316Z,12.70
2023-03-29T07:00:40.562Z,10.45
2023-03-29T07:03:09.122Z,11.25
2023-03-29T07:05:37.412Z,16.25
2023-03-29T07:08:04.679Z,11.90
2023-03-29T07:10:37.660Z,7.20
2023-03-29T07:13:05.449Z,10.40
2023-03-29T07:15:32.994Z,9.00
2023-03-29T07:18:00.268Z,9.00
2023-03-29T07:20:27.323Z,8.30
2023-03-29T07:22:55.862Z,6.72
2023-03-29T07:25:24.070Z,5.70
2023-03-29T07:27:51.428Z,11.65
2023-03-29T07:30:21.186Z,11.15
2023-03-29T07:32:49.925Z,11.13
2023-03-29T07:35:18.380Z,10.45
2023-03-29T07:37:46.038Z,9.15
2023-03-29T07:40:16.211Z,10.38
2023-03-29T07:42:43.638Z,15.60
2023-03-29T07:45:12.188Z,9.60
2023-03-29T07:47:39.135Z,13.13
2023-03-29T07:50:07.650Z,9.55
2023-03-29T07:52:36.114Z,8.75
2023-03-29T07:55:03.169Z,8.75
2023-03-29T07:57:31.778Z,10.57
2023-03-29T07:59:58.954Z,8.57
2023-03-29T08:02:26.435Z,9.50
2023-03-29T08:04:54.247Z,8.18
2023-03-29T08:07:21.200Z,9.18
2023-03-29T08:09:48.206Z,11.05
2023-03-29T08:12:15.238Z,11.73
2023-03-29T08:14:43.538Z,10.27
2023-03-29T08:17:10.513Z,9.57
2023-03-29T08:19:37.676Z,8.80
2023-03-29T08:22:04.678Z,9.63
2023-03-29T08:24:31.609Z,8.25
2023-03-29T08:26:58.594Z,12.25
2023-03-29T08:29:26.761Z,14.52
2023-03-29T08:31:55.054Z,10.15
2023-03-29T08:34:22.027Z,8.18
2023-03-29T08:36:48.987Z,8.52
2023-03-29T08:39:16.892Z,7.22
2023-03-29T08:41:55.361Z,9.95
2023-03-29T08:44:47.159Z,13.82
2023-03-29T08:47:21.107Z,8.23
2023-03-29T08:49:52.673Z,9.53
2023-03-29T08:52:28.875Z,8.60
2023-03-29T08:54:57.188Z,10.48
2023-03-29T08:57:29.072Z,10.20
2023-03-29T08:59:58.547Z,12.25
2023-03-29T09:02:30.814Z,8.13
2023-03-29T09:05:02.499Z,11.25
2023-03-29T09:07:29.451Z,10.20
2023-03-29T09:09:56.427Z,8.13
2023-03-29T09:12:33.282Z,9.70
2023-03-29T09:15:13.207Z,9.10
2023-03-29T09:17:53.439Z,11.07
2023-03-29T09:20:36.436Z,9.48
2023-03-29T09:23:28.372Z,8.13
2023-03-29T09:26:04.420Z,13.95
2023-03-29T09:28:37.194Z,9.27
2023-03-29T09:31:12.133Z,10.27
2023-03-29T09:36:12.244Z,8.30
2023-03-29T09:38:43.583Z,19.83
2023-03-29T09:41:20.250Z,12.57
2023-03-29T09:43:49.230Z,10.82
2023-03-29T09:46:21.402Z,7.63
2023-03-29T09:48:50.901Z,13.75
2023-03-29T09:51:22.820Z,8.85
2023-03-29T09:53:50.353Z,7.95
2023-03-29T09:56:17.390Z,9.50
2023-03-29T09:58:45.538Z,11.07
2023-03-29T10:01:15.891Z,8.63
2023-03-29T10:03:50.575Z,8.18
2023-03-29T10:06:19.405Z,10.88
2023-03-29T10:08:52.878Z,12.10
2023-03-29T10:11:23.395Z,8.15
2023-03-29T10:13:53.197Z,10.15
2023-03-29T10:16:21.910Z,7.28
2023-03-29T10:18:50.712Z,8.32
2023-03-29T10:21:19.517Z,9.80
2023-03-29T10:23:47.203Z,6.70
2023-03-29T10:26:23.198Z,8.00
2023-03-29T10:28:52.808Z,12.75
2023-03-29T10:31:21.799Z,7.10
2023-03-29T10:33:54.272Z,8.52
2023-03-29T10:36:23.209Z,9.23
2023-03-29T10:38:51.688Z,8.63
2023-03-29T10:41:20.982Z,8.45
2023-03-29T10:43:50.320Z,9.48
2023-03-29T10:46:21.646Z,8.65
2023-03-29T10:48:50.303Z,9.30
2023-03-29T10:51:19.913Z,9.98
2023-03-29T10:53:47.873Z,8.23
2023-03-29T10:56:28.627Z,7.35
2023-03-29T10:59:18.364Z,8.68
2023-03-29T11:01:58.172Z,5.55
2023-03-29T11:04:34.550Z,5.38
2023-03-29T11:07:25.787Z,5.00
2023-03-29T11:10:01.205Z,6.25
2023-03-29T11:12:33.071Z,9.90
2023-03-29T11:15:14.934Z,9.73
2023-03-29T11:17:53.976Z,6.70
2023-03-29T11:20:28.843Z,11.25
2023-03-29T11:25:44.164Z,7.80
2023-03-29T11:28:17.042Z,8.20
2023-03-29T11:30:51.761Z,5.30
2023-03-29T11:33:37.034Z,4.93
2023-03-29T11:36:11.956Z,5.35
2023-03-29T11:38:47.466Z,6.65
2023-03-29T11:41:18.087Z,6.00
2023-03-29T11:43:48.965Z,9.95
2023-03-29T11:46:21.456Z,6.85
2023-03-29T11:48:54.622Z,8.82
2023-03-29T11:51:25.266Z,8.30
2023-03-29T11:54:00.930Z,6.50
2023-03-29T11:56:33.311Z,7.13
2023-03-29T11:59:05.656Z,8.18
2023-03-29T12:01:35.462Z,10.02
2023-03-29T12:04:07.369Z,6.65
2023-03-29T12:06:39.627Z,7.68
2023-03-29T12:09:16.788Z,7.70
2023-03-29T12:11:50.110Z,9.32
2023-03-29T12:14:21.885Z,9.68
2023-03-29T12:16:53.360Z,7.38
2023-03-29T12:19:23.980Z,6.20
2023-03-29T12:21:52.641Z,11.90
2023-03-29T12:24:21.414Z,10.13
2023-03-29T12:27:08.419Z,6.97
2023-03-29T12:29:52.895Z,10.60
2023-03-29T12:32:34.829Z,7.47
2023-03-29T12:35:18.036Z,12.50
2023-03-29T12:37:51.065Z,7.10
2023-03-29T12:40:21.445Z,6.45
2023-03-29T12:42:52.146Z,7.70
2023-03-29T12:45:21.000Z,5.25
2023-03-29T12:47:50.554Z,5.57
2023-03-29T12:50:32.304Z,6.00
2023-03-29T12:53:06.279Z,6.38
2023-03-29T12:55:49.052Z,5.00
2023-03-29T12:58:37.798Z,4.47
2023-03-29T13:01:07.691Z,5.85
2023-03-29T13:03:48.703Z,5.78
2023-03-29T13:06:29.847Z,7.20
2023-03-29T13:09:02.208Z,8.13
2023-03-29T13:11:33.794Z,5.68
2023-03-29T13:14:03.162Z,7.03
2023-03-29T13:16:33.114Z,5.97
2023-03-29T13:19:12.062Z,9.57
2023-03-29T13:21:49.652Z,9.10
2023-03-29T13:24:33.308Z,8.48
2023-03-29T13:27:10.012Z,8.27
2023-03-29T13:29:48.230Z,8.40
2023-03-29T13:32:38.368Z,8.18
2023-03-29T13:35:15.272Z,8.57
2023-03-29T13:37:52.516Z,7.45
2023-03-29T13:40:33.098Z,5.35
2023-03-29T13:43:08.989Z,6.93
2023-03-29T13:45:37.134Z,5.60
2023-03-29T13:48:19.857Z,5.10
2023-03-29T13:50:53.322Z,7.80
2023-03-29T13:53:27.514Z,8.05
2023-03-29T13:55:57.399Z,6.10
2023-03-29T13:58:36.430Z,7.53
2023-03-29T14:01:11.729Z,5.47
2023-03-29T14:03:43.675Z,5.07
2023-03-29T14:06:14.811Z,5.93
2023-03-29T14:08:43.713Z,7.55
2023-03-29T14:11:20.030Z,6.28
2023-03-29T14:13:49.075Z,8.20
2023-03-29T14:16:16.100Z,8.25
2023-03-29T14:18:43.729Z,6.88
2023-03-29T14:21:13.877Z,7.82
2023-03-29T14:23:45.275Z,5.22
2023-03-29T14:26:16.682Z,6.70
2023-03-29T14:28:48.754Z,7.97
2023-03-29T14:31:20.230Z,7.03
2023-03-29T14:33:52.381Z,7.30
2023-03-29T14:36:20.112Z,6.63
2023-03-29T14:38:50.669Z,6.78
2023-03-29T14:41:17.610Z,6.38
2023-03-29T14:43:45.034Z,5.30
2023-03-29T14:46:18.338Z,7.53
2023-03-29T14:48:46.122Z,9.52
2023-03-29T14:51:13.446Z,6.13
2023-03-29T14:53:41.336Z,7.93
2023-03-29T14:56:13.255Z,8.02
2023-03-29T14:58:45.363Z,9.57
2023-03-29T15:01:17.859Z,8.10
2023-03-29T15:03:50.144Z,7.50
2023-03-29T15:06:17.239Z,6.68
2023-03-29T15:08:57.654Z,8.77
2023-03-29T15:11:31.424Z,7.97
2023-03-29T15:14:03.041Z,9.48
2023-03-29T15:16:32.291Z,8.60
2023-03-29T15:19:01.696Z,8.32
2023-03-29T15:21:33.245Z,6.68
2023-03-29T15:24:01.902Z,7.40
2023-03-29T15:26:31.255Z,9.13
2023-03-29T15:29:05.479Z,9.32
2023-03-29T15:31:36.509Z,9.50
2023-03-29T15:34:06.937Z,11.05
2023-03-29T15:36:40.033Z,5.38
2023-03-29T15:39:10.178Z,10.15
2023-03-29T15:41:37.113Z,8.68
2023-03-29T15:44:04.123Z,8.85
2023-03-29T15:46:31.187Z,11.20
2023-03-29T15:48:59.908Z,8.10
2023-03-29T15:51:27.173Z,8.43
2023-03-29T15:53:54.097Z,7.13
2023-03-29T15:56:21.865Z,7.60
2023-03-29T15:58:49.408Z,7.70
2023-03-29T16:01:22.907Z,8.05
2023-03-29T16:03:50.546Z,7.43
2023-03-29T16:06:18.863Z,9.63
2023-03-29T16:08:45.804Z,8.75
2023-03-29T16:11:12.759Z,12.75
2023-03-29T16:13:39.747Z,9.80
2023-03-29T16:16:09.519Z,9.15
2023-03-29T16:18:36.594Z,8.95
2023-03-29T16:21:03.728Z,10.02
2023-03-29T16:23:32.053Z,9.00
2023-03-29T16:25:59.008Z,8.52
2023-03-29T16:28:26.034Z,7.95
2023-03-29T16:30:53.319Z,10.98
2023-03-29T16:33:20.276Z,10.48
2023-03-29T16:35:47.247Z,9.45
2023-03-29T16:38:14.298Z,8.25
2023-03-29T16:40:42.797Z,9.15
2023-03-29T16:43:14.272Z,9.02
2023-03-29T16:45:41.263Z,7.65
2023-03-29T16:48:12.059Z,10.88
2023-03-29T16:50:39.301Z,6.95
2023-03-29T16:53:06.265Z,12.10
2023-03-29T16:55:33.230Z,11.52
2023-03-29T16:58:01.619Z,9.95
2023-03-29T17:00:28.538Z,7.78
2023-03-29T17:02:55.611Z,8.35
2023-03-29T17:05:23.261Z,8.48
2023-03-29T17:07:50.356Z,9.00
2023-03-29T17:10:17.433Z,9.00
2023-03-29T17:12:44.510Z,10.63
2023-03-29T17:15:12.939Z,12.00
2023-03-29T17:17:39.998Z,17.98
2023-03-29T17:20:08.458Z,10.20
2023-03-29T17:22:35.839Z,10.43
2023-03-29T17:25:02.839Z,7.93
2023-03-29T17:27:30.054Z,13.25
2023-03-29T17:29:57.007Z,9.50
2023-03-29T17:32:25.515Z,14.30
2023-03-29T17:34:52.600Z,23.73
2023-03-29T17:37:19.658Z,10.70
2023-03-29T17:39:46.746Z,7.82
2023-03-29T17:42:13.664Z,9.05
2023-03-29T17:44:40.606Z,9.98
2023-03-29T17:47:07.680Z,8.88
2023-03-29T17:49:36.071Z,10.05
2023-03-29T17:52:03.259Z,7.53
2023-03-29T17:54:30.190Z,9.07
2023-03-29T17:56:57.160Z,6.00
2023-03-29T17:59:24.333Z,7.60
2023-03-29T18:01:51.337Z,9.27
2023-03-29T18:04:18.254Z,10.13
2023-03-29T18:06:46.519Z,13.18
2023-03-29T18:09:13.747Z,8.68
2023-03-29T18:11:40.631Z,9.63
2023-03-29T18:14:07.583Z,9.75
2023-03-29T18:16:34.673Z,8.10
2023-03-29T18:19:01.629Z,9.38
2023-03-29T18:21:28.593Z,7.28
2023-03-29T18:23:57.170Z,8.57
2023-03-29T18:26:24.451Z,10.07
2023-03-29T18:28:51.489Z,8.05
2023-03-29T18:31:18.539Z,8.77
2023-03-29T18:33:45.724Z,11.45
2023-03-29T18:36:13.814Z,8.88
2023-03-29T18:38:41.870Z,9.10
2023-03-29T18:41:11.221Z,8.48
2023-03-29T18:43:38.753Z,12.63
2023-03-29T18:46:06.531Z,9.90
2023-03-29T18:48:33.851Z,16.40
2023-03-29T18:51:02.270Z,10.88
2023-03-29T18:53:30.404Z,6.78
2023-03-29T18:55:57.350Z,11.07
2023-03-29T18:58:25.731Z,8.45
2023-03-29T19:00:52.844Z,10.50
2023-03-29T19:03:19.878Z,9.20
2023-03-29T19:05:46.977Z,8.30
2023-03-29T19:08:13.883Z,9.07
2023-03-29T19:10:40.858Z,8.85
2023-03-29T19:13:07.798Z,9.45
2023-03-29T19:15:36.161Z,7.40
2023-03-29T19:18:03.211Z,9.43
2023-03-29T19:20:30.182Z,9.35
2023-03-29T19:22:57.111Z,11.05
2023-03-29T19:25:24.062Z,9.82
2023-03-29T19:27:51.130Z,10.05
2023-03-29T19:30:18.221Z,10.40
2023-03-29T19:32:46.693Z,8.02
2023-03-29T19:35:14.662Z,10.98
2023-03-29T19:37:41.726Z,7.82
2023-03-29T19:40:09.395Z,7.82
2023-03-29T19:42:36.718Z,7.45
2023-03-29T19:45:04.548Z,8.13
2023-03-29T19:47:31.548Z,8.75
2023-03-29T19:50:00.285Z,10.10
2023-03-29T19:52:27.827Z,11.70
2023-03-29T19:54:54.792Z,8.60
2023-03-29T19:57:21.932Z,10.07
2023-03-29T19:59:48.915Z,7.60
2023-03-29T20:02:15.887Z,10.77
2023-03-29T20:04:42.943Z,8.90
2023-03-29T20:07:11.381Z,12.05
2023-03-29T20:09:38.326Z,9.93
2023-03-29T20:12:05.426Z,10.13
2023-03-29T20:14:32.716Z,6.32
2023-03-29T20:16:59.679Z,6.45
2023-03-29T20:19:26.566Z,8.32
2023-03-29T20:21:54.165Z,7.63
2023-03-29T20:24:22.783Z,6.82
2023-03-29T20:26:49.971Z,6.55
2023-03-29T20:29:17.003Z,5.68
2023-03-29T20:31:43.953Z,5.03
2023-03-29T20:34:11.182Z,5.70
2023-03-29T20:36:38.729Z,5.95
2023-03-29T20:39:05.779Z,7.35
2023-03-29T20:41:34.126Z,5.50
2023-03-29T20:44:01.081Z,5.72
2023-03-29T20:46:29.052Z,5.32
2023-03-29T20:48:56.000Z,6.63
2023-03-29T20:51:23.841Z,4.45
2023-03-29T20:53:50.802Z,5.05
2023-03-29T20:56:17.732Z,5.35
2023-03-29T20:58:46.241Z,6.05
2023-03-29T21:01:13.195Z,6.53
2023-03-29T21:03:40.342Z,7.20
2023-03-29T21:06:07.405Z,8.05
2023-03-29T21:08:34.354Z,6.32
2023-03-29T21:11:01.418Z,8.40
2023-03-29T21:13:28.462Z,7.47
2023-03-29T21:15:56.805Z,5.57
2023-03-29T21:18:23.710Z,5.30
2023-03-29T21:20:50.668Z,7.85
2023-03-29T21:23:17.586Z,6.68
2023-03-29T21:25:44.486Z,5.53
2023-03-29T21:28:11.441Z,9.98
2023-03-29T21:30:38.303Z,7.55
2023-03-29T21:33:06.685Z,5.35
2023-03-29T21:35:33.667Z,5.97
2023-03-29T21:38:00.603Z,7.07
2023-03-29T21:40:27.568Z,9.07
2023-03-29T21:42:54.553Z,5.45
2023-03-29T21:45:21.598Z,5.57
2023-03-29T21:47:48.567Z,6.40
2023-03-29T21:50:17.185Z,6.95
2023-03-29T21:52:44.184Z,3.92
2023-03-29T21:55:11.131Z,5.75
2023-03-29T21:57:38.044Z,5.90
2023-03-29T22:00:06.909Z,6.97
2023-03-29T22:02:34.268Z,4.50
2023-03-29T22:05:01.312Z,7.55
2023-03-29T22:07:29.641Z,7.85
2023-03-29T22:09:56.562Z,4.95
2023-03-29T22:12:23.536Z,5.35
2023-03-29T22:14:50.432Z,5.78
2023-03-29T22:17:17.353Z,4.05
2023-03-29T22:19:44.397Z,7.47
2023-03-29T22:22:14.256Z,4.97
2023-03-29T22:24:42.682Z,5.43
2023-03-29T22:27:10.121Z,5.65
2023-03-29T22:29:37.108Z,4.20
2023-03-29T22:32:04.177Z,3.55
2023-03-29T22:34:31.677Z,5.18
2023-03-29T22:36:58.578Z,6.28
2023-03-29T22:39:25.501Z,11.27
2023-03-29T22:41:53.854Z,6.32
2023-03-29T22:44:20.967Z,5.82
2023-03-29T22:46:47.889Z,8.20
2023-03-29T22:49:14.870Z,7.78
2023-03-29T22:51:41.953Z,6.72
2023-03-29T22:54:08.912Z,7.28
2023-03-29T22:56:35.872Z,6.40
2023-03-29T22:59:04.165Z,7.82
2023-03-29T23:01:31.118Z,7.53
2023-03-29T23:03:58.172Z,9.40
2023-03-29T23:06:25.167Z,7.45
2023-03-29T23:08:52.101Z,8.38
2023-03-29T23:11:19.240Z,6.65
2023-03-29T23:13:46.161Z,5.47
2023-03-29T23:16:15.008Z,5.20
2023-03-29T23:18:42.149Z,7.80
2023-03-29T23:21:09.125Z,5.00
2023-03-29T23:23:36.095Z,7.88
2023-03-29T23:26:03.179Z,5.90
2023-03-29T23:28:30.906Z,5.70
2023-03-29T23:30:59.967Z,4.38
2023-03-29T23:33:29.474Z,10.25
2023-03-29T23:35:56.819Z,8.02
2023-03-29T23:38:23.763Z,7.20
2023-03-29T23:40:54.756Z,6.88
2023-03-29T23:43:21.762Z,9.90
2023-03-29T23:45:54.856Z,4.25
2023-03-29T23:48:21.793Z,9.20
2023-03-29T23:50:50.139Z,5.85
2023-03-29T23:53:17.081Z,8.60
2023-03-29T23:55:45.074Z,6.10
2023-03-29T23:58:11.999Z,10.40
